sensor_id;sensor_type;location;lat;lon;timestamp;P1;durP1;ratioP1;P2;durP2;ratioP2
75655;SDS011;64252;51.094;13.714;2024-02-15T00:02:22;6.93;;;3.08;;
75655;SDS011;64252;51.094;13.714;2024-02-15T00:04:48;5.18;;;2.53;;
75655;SDS011;64252;51.094;13.714;2024-02-15T00:07:13;4.30;;;2.40;;
75655;SDS011;64252;51.094;13.714;2024-02-15T00:09:40;5.57;;;2.67;;
75655;SDS011;64252;51.094;13.714;2024-02-15T00:12:05;4.95;;;2.65;;
75655;SDS011;64252;51.094;13.714;2024-02-15T00:14:31;5.22;;;2.75;;
75655;SDS011;64252;51.094;13.714;2024-02-15T00:16:57;5.75;;;2.53;;
75655;SDS011;64252;51.094;13.714;2024-02-15T00:19:23;6.93;;;3.05;;
75655;SDS011;64252;51.094;13.714;2024-02-15T00:21:49;5.13;;;2.83;;
75655;SDS011;64252;51.094;13.714;2024-02-15T00:24:14;6.50;;;2.88;;
75655;SDS011;64252;51.094;13.714;2024-02-15T00:26:40;5.63;;;2.83;;
75655;SDS011;64252;51.094;13.714;2024-02-15T00:29:08;6.07;;;2.70;;
75655;SDS011;64252;51.094;13.714;2024-02-15T00:31:33;6.95;;;2.85;;
75655;SDS011;64252;51.094;13.714;2024-02-15T00:34:00;6.97;;;3.22;;
75655;SDS011;64252;51.094;13.714;2024-02-15T00:36:28;8.35;;;3.33;;
75655;SDS011;64252;51.094;13.714;2024-02-15T00:38:54;4.97;;;2.75;;
75655;SDS011;64252;51.094;13.714;2024-02-15T00:41:20;5.93;;;2.78;;
75655;SDS011;64252;51.094;13.714;2024-02-15T00:43:47;5.65;;;3.00;;
75655;SDS011;64252;51.094;13.714;2024-02-15T00:46:13;6.80;;;2.70;;
75655;SDS011;64252;51.094;13.714;2024-02-15T00:48:38;5.15;;;2.45;;
75655;SDS011;64252;51.094;13.714;2024-02-15T00:51:06;6.03;;;2.85;;
75655;SDS011;64252;51.094;13.714;2024-02-15T00:53:31;5.25;;;2.78;;
75655;SDS011;64252;51.094;13.714;2024-02-15T00:55:57;4.60;;;2.83;;
75655;SDS011;64252;51.094;13.714;2024-02-15T00:58:22;5.20;;;2.85;;
75655;SDS011;64252;51.094;13.714;2024-02-15T01:00:49;5.85;;;3.20;;
75655;SDS011;64252;51.094;13.714;2024-02-15T01:03:15;6.25;;;3.00;;
75655;SDS011;64252;51.094;13.714;2024-02-15T01:05:41;5.63;;;2.72;;
75655;SDS011;64252;51.094;13.714;2024-02-15T01:08:07;5.40;;;2.70;;
75655;SDS011;64252;51.094;13.714;2024-02-15T01:10:34;5.80;;;3.00;;
75655;SDS011;64252;51.094;13.714;2024-02-15T01:13:00;5.70;;;2.78;;
75655;SDS011;64252;51.094;13.714;2024-02-15T01:15:25;6.10;;;2.95;;
75655;SDS011;64252;51.094;13.714;2024-02-15T01:17:51;6.10;;;2.97;;
75655;SDS011;64252;51.094;13.714;2024-02-15T01:20:17;7.78;;;3.75;;
75655;SDS011;64252;51.094;13.714;2024-02-15T01:22:42;7.22;;;3.20;;
75655;SDS011;64252;51.094;13.714;2024-02-15T01:25:09;11.10;;;5.28;;
75655;SDS011;64252;51.094;13.714;2024-02-15T01:27:36;9.63;;;6.05;;
75655;SDS011;64252;51.094;13.714;2024-02-15T01:30:01;11.27;;;6.20;;
75655;SDS011;64252;51.094;13.714;2024-02-15T01:32:27;9.65;;;5.75;;
75655;SDS011;64252;51.094;13.714;2024-02-15T01:34:53;10.90;;;6.65;;
75655;SDS011;64252;51.094;13.714;2024-02-15T01:37:22;11.85;;;6.70;;
75655;SDS011;64252;51.094;13.714;2024-02-15T01:39:48;12.35;;;7.38;;
75655;SDS011;64252;51.094;13.714;2024-02-15T01:42:15;11.25;;;6.68;;
75655;SDS011;64252;51.094;13.714;2024-02-15T01:44:40;12.27;;;7.15;;
75655;SDS011;64252;51.094;13.714;2024-02-15T01:47:09;11.80;;;6.53;;
75655;SDS011;64252;51.094;13.714;2024-02-15T01:49:35;7.38;;;4.72;;
75655;SDS011;64252;51.094;13.714;2024-02-15T01:52:02;9.15;;;6.20;;
75655;SDS011;64252;51.094;13.714;2024-02-15T01:54:30;9.98;;;6.45;;
75655;SDS011;64252;51.094;13.714;2024-02-15T01:56:57;10.57;;;6.53;;
75655;SDS011;64252;51.094;13.714;2024-02-15T01:59:23;11.18;;;6.75;;
75655;SDS011;64252;51.094;13.714;2024-02-15T02:01:48;11.95;;;7.15;;
75655;SDS011;64252;51.094;13.714;2024-02-15T02:04:15;10.48;;;6.32;;
75655;SDS011;64252;51.094;13.714;2024-02-15T02:06:40;10.30;;;6.55;;
75655;SDS011;64252;51.094;13.714;2024-02-15T02:09:09;10.48;;;5.45;;
75655;SDS011;64252;51.094;13.714;2024-02-15T02:11:38;9.60;;;5.25;;
75655;SDS011;64252;51.094;13.714;2024-02-15T02:14:03;7.90;;;5.20;;
75655;SDS011;64252;51.094;13.714;2024-02-15T02:16:29;9.50;;;5.45;;
75655;SDS011;64252;51.094;13.714;2024-02-15T02:19:00;8.90;;;5.38;;
75655;SDS011;64252;51.094;13.714;2024-02-15T02:21:27;9.20;;;4.68;;
75655;SDS011;64252;51.094;13.714;2024-02-15T02:23:57;10.50;;;6.18;;
75655;SDS011;64252;51.094;13.714;2024-02-15T02:26:23;10.52;;;5.15;;
75655;SDS011;64252;51.094;13.714;2024-02-15T02:28:50;9.77;;;4.75;;
75655;SDS011;64252;51.094;13.714;2024-02-15T02:31:18;9.10;;;4.32;;
75655;SDS011;64252;51.094;13.714;2024-02-15T02:33:51;8.20;;;4.95;;
75655;SDS011;64252;51.094;13.714;2024-02-15T02:36:21;7.30;;;3.58;;
75655;SDS011;64252;51.094;13.714;2024-02-15T02:38:46;9.45;;;4.40;;
75655;SDS011;64252;51.094;13.714;2024-02-15T02:41:15;8.73;;;4.50;;
75655;SDS011;64252;51.094;13.714;2024-02-15T02:43:41;5.30;;;3.60;;
75655;SDS011;64252;51.094;13.714;2024-02-15T02:46:09;6.95;;;4.22;;
75655;SDS011;64252;51.094;13.714;2024-02-15T02:48:36;6.75;;;4.22;;
75655;SDS011;64252;51.094;13.714;2024-02-15T02:51:02;10.05;;;4.72;;
75655;SDS011;64252;51.094;13.714;2024-02-15T02:53:28;8.93;;;5.45;;
75655;SDS011;64252;51.094;13.714;2024-02-15T02:55:54;8.82;;;5.22;;
75655;SDS011;64252;51.094;13.714;2024-02-15T02:58:21;9.65;;;4.78;;
75655;SDS011;64252;51.094;13.714;2024-02-15T03:00:48;8.77;;;4.65;;
75655;SDS011;64252;51.094;13.714;2024-02-15T03:03:15;8.70;;;5.22;;
75655;SDS011;64252;51.094;13.714;2024-02-15T03:05:44;7.60;;;4.20;;
75655;SDS011;64252;51.094;13.714;2024-02-15T03:08:13;6.85;;;4.18;;
75655;SDS011;64252;51.094;13.714;2024-02-15T03:10:38;8.48;;;5.18;;
75655;SDS011;64252;51.094;13.714;2024-02-15T03:13:05;9.10;;;4.50;;
75655;SDS011;64252;51.094;13.714;2024-02-15T03:15:30;8.00;;;4.18;;
75655;SDS011;64252;51.094;13.714;2024-02-15T03:17:58;8.18;;;4.63;;
75655;SDS011;64252;51.094;13.714;2024-02-15T03:20:23;7.68;;;4.57;;
75655;SDS011;64252;51.094;13.714;2024-02-15T03:22:56;9.05;;;4.43;;
75655;SDS011;64252;51.094;13.714;2024-02-15T03:25:23;7.70;;;4.57;;
75655;SDS011;64252;51.094;13.714;2024-02-15T03:27:52;8.85;;;4.22;;
75655;SDS011;64252;51.094;13.714;2024-02-15T03:30:19;7.25;;;3.72;;
75655;SDS011;64252;51.094;13.714;2024-02-15T03:32:49;10.05;;;4.07;;
75655;SDS011;64252;51.094;13.714;2024-02-15T03:35:16;6.90;;;4.22;;
75655;SDS011;64252;51.094;13.714;2024-02-15T03:37:42;8.02;;;4.30;;
75655;SDS011;64252;51.094;13.714;2024-02-15T03:40:08;6.50;;;3.55;;
75655;SDS011;64252;51.094;13.714;2024-02-15T03:42:35;8.02;;;4.03;;
75655;SDS011;64252;51.094;13.714;2024-02-15T03:45:04;7.15;;;4.10;;
75655;SDS011;64252;51.094;13.714;2024-02-15T03:47:33;7.85;;;4.13;;
75655;SDS011;64252;51.094;13.714;2024-02-15T03:50:01;8.27;;;4.70;;
75655;SDS011;64252;51.094;13.714;2024-02-15T03:52:27;7.18;;;3.67;;
75655;SDS011;64252;51.094;13.714;2024-02-15T03:54:55;7.53;;;3.78;;
75655;SDS011;64252;51.094;13.714;2024-02-15T03:57:22;8.25;;;4.20;;
75655;SDS011;64252;51.094;13.714;2024-02-15T03:59:48;6.57;;;3.60;;
75655;SDS011;64252;51.094;13.714;2024-02-15T04:04:44;8.65;;;3.60;;
75655;SDS011;64252;51.094;13.714;2024-02-15T04:07:14;5.57;;;3.17;;
75655;SDS011;64252;51.094;13.714;2024-02-15T04:09:44;6.72;;;4.00;;
75655;SDS011;64252;51.094;13.714;2024-02-15T04:12:11;6.55;;;3.78;;
75655;SDS011;64252;51.094;13.714;2024-02-15T04:14:37;6.45;;;3.25;;
75655;SDS011;64252;51.094;13.714;2024-02-15T04:17:05;6.32;;;3.28;;
75655;SDS011;64252;51.094;13.714;2024-02-15T04:19:31;7.35;;;4.03;;
75655;SDS011;64252;51.094;13.714;2024-02-15T04:21:57;6.93;;;3.53;;
75655;SDS011;64252;51.094;13.714;2024-02-15T04:24:24;8.23;;;3.75;;
75655;SDS011;64252;51.094;13.714;2024-02-15T04:26:50;7.18;;;3.72;;
75655;SDS011;64252;51.094;13.714;2024-02-15T04:29:16;6.03;;;3.13;;
75655;SDS011;64252;51.094;13.714;2024-02-15T04:31:43;6.40;;;3.38;;
75655;SDS011;64252;51.094;13.714;2024-02-15T04:34:08;5.82;;;3.28;;
75655;SDS011;64252;51.094;13.714;2024-02-15T04:36:35;7.50;;;3.30;;
75655;SDS011;64252;51.094;13.714;2024-02-15T04:39:01;6.03;;;2.80;;
75655;SDS011;64252;51.094;13.714;2024-02-15T04:41:28;6.10;;;3.28;;
75655;SDS011;64252;51.094;13.714;2024-02-15T04:43:54;7.32;;;2.92;;
75655;SDS011;64252;51.094;13.714;2024-02-15T04:46:19;5.72;;;3.17;;
75655;SDS011;64252;51.094;13.714;2024-02-15T04:48:46;6.32;;;3.30;;
75655;SDS011;64252;51.094;13.714;2024-02-15T04:51:15;5.85;;;3.10;;
75655;SDS011;64252;51.094;13.714;2024-02-15T04:53:42;6.38;;;3.75;;
75655;SDS011;64252;51.094;13.714;2024-02-15T04:56:08;5.82;;;3.50;;
75655;SDS011;64252;51.094;13.714;2024-02-15T04:58:39;5.68;;;3.42;;
75655;SDS011;64252;51.094;13.714;2024-02-15T05:01:13;5.88;;;3.42;;
75655;SDS011;64252;51.094;13.714;2024-02-15T05:03:41;6.88;;;3.50;;
75655;SDS011;64252;51.094;13.714;2024-02-15T05:06:07;6.70;;;3.25;;
75655;SDS011;64252;51.094;13.714;2024-02-15T05:08:34;7.70;;;3.60;;
75655;SDS011;64252;51.094;13.714;2024-02-15T05:11:10;5.75;;;3.22;;
75655;SDS011;64252;51.094;13.714;2024-02-15T05:13:47;6.20;;;3.42;;
75655;SDS011;64252;51.094;13.714;2024-02-15T05:16:16;6.50;;;3.15;;
75655;SDS011;64252;51.094;13.714;2024-02-15T05:18:42;6.47;;;3.25;;
75655;SDS011;64252;51.094;13.714;2024-02-15T05:21:07;5.45;;;2.72;;
75655;SDS011;64252;51.094;13.714;2024-02-15T05:23:36;6.63;;;3.60;;
75655;SDS011;64252;51.094;13.714;2024-02-15T05:26:02;4.80;;;2.53;;
75655;SDS011;64252;51.094;13.714;2024-02-15T05:28:28;5.72;;;3.30;;
75655;SDS011;64252;51.094;13.714;2024-02-15T05:33:53;9.15;;;3.70;;
75655;SDS011;64252;51.094;13.714;2024-02-15T05:36:20;7.32;;;3.50;;
75655;SDS011;64252;51.094;13.714;2024-02-15T05:38:49;6.13;;;3.40;;
75655;SDS011;64252;51.094;13.714;2024-02-15T05:41:17;7.55;;;4.15;;
75655;SDS011;64252;51.094;13.714;2024-02-15T05:43:44;8.40;;;4.32;;
75655;SDS011;64252;51.094;13.714;2024-02-15T05:46:10;7.88;;;4.35;;
75655;SDS011;64252;51.094;13.714;2024-02-15T05:48:36;7.28;;;3.65;;
75655;SDS011;64252;51.094;13.714;2024-02-15T05:51:03;6.53;;;3.60;;
75655;SDS011;64252;51.094;13.714;2024-02-15T05:53:29;7.07;;;3.55;;
75655;SDS011;64252;51.094;13.714;2024-02-15T05:55:55;5.82;;;3.50;;
75655;SDS011;64252;51.094;13.714;2024-02-15T05:58:23;8.48;;;3.47;;
75655;SDS011;64252;51.094;13.714;2024-02-15T06:00:49;5.20;;;2.70;;
75655;SDS011;64252;51.094;13.714;2024-02-15T06:03:15;6.32;;;3.22;;
75655;SDS011;64252;51.094;13.714;2024-02-15T06:05:41;7.40;;;3.95;;
75655;SDS011;64252;51.094;13.714;2024-02-15T06:08:07;9.18;;;4.32;;
75655;SDS011;64252;51.094;13.714;2024-02-15T06:10:33;7.80;;;4.13;;
75655;SDS011;64252;51.094;13.714;2024-02-15T06:12:58;10.45;;;5.03;;
75655;SDS011;64252;51.094;13.714;2024-02-15T06:15:24;13.43;;;4.65;;
75655;SDS011;64252;51.094;13.714;2024-02-15T06:17:50;14.52;;;4.85;;
75655;SDS011;64252;51.094;13.714;2024-02-15T06:20:16;8.02;;;4.53;;
75655;SDS011;64252;51.094;13.714;2024-02-15T06:22:48;9.75;;;5.07;;
75655;SDS011;64252;51.094;13.714;2024-02-15T06:25:14;7.93;;;4.55;;
75655;SDS011;64252;51.094;13.714;2024-02-15T06:27:45;11.45;;;5.32;;
75655;SDS011;64252;51.094;13.714;2024-02-15T06:30:11;8.63;;;5.07;;
75655;SDS011;64252;51.094;13.714;2024-02-15T06:32:59;8.18;;;4.85;;
75655;SDS011;64252;51.094;13.714;2024-02-15T06:35:43;7.32;;;4.25;;
75655;SDS011;64252;51.094;13.714;2024-02-15T06:38:27;6.32;;;4.05;;
75655;SDS011;64252;51.094;13.714;2024-02-15T06:41:16;9.68;;;5.32;;
75655;SDS011;64252;51.094;13.714;2024-02-15T06:43:44;9.30;;;4.75;;
75655;SDS011;64252;51.094;13.714;2024-02-15T06:46:09;9.82;;;4.57;;
75655;SDS011;64252;51.094;13.714;2024-02-15T06:48:36;9.45;;;5.15;;
75655;SDS011;64252;51.094;13.714;2024-02-15T06:51:02;9.10;;;5.78;;
75655;SDS011;64252;51.094;13.714;2024-02-15T06:53:29;8.43;;;5.13;;
75655;SDS011;64252;51.094;13.714;2024-02-15T06:55:55;9.68;;;5.90;;
75655;SDS011;64252;51.094;13.714;2024-02-15T06:58:21;9.32;;;4.78;;
75655;SDS011;64252;51.094;13.714;2024-02-15T07:00:47;9.98;;;5.40;;
75655;SDS011;64252;51.094;13.714;2024-02-15T07:03:13;8.35;;;5.30;;
75655;SDS011;64252;51.094;13.714;2024-02-15T07:05:41;10.55;;;5.57;;
75655;SDS011;64252;51.094;13.714;2024-02-15T07:08:08;10.57;;;5.10;;
75655;SDS011;64252;51.094;13.714;2024-02-15T07:10:40;8.95;;;4.93;;
75655;SDS011;64252;51.094;13.714;2024-02-15T07:13:06;9.85;;;4.20;;
75655;SDS011;64252;51.094;13.714;2024-02-15T07:15:32;8.27;;;5.03;;
75655;SDS011;64252;51.094;13.714;2024-02-15T07:18:06;9.60;;;5.13;;
75655;SDS011;64252;51.094;13.714;2024-02-15T07:20:32;8.05;;;4.47;;
75655;SDS011;64252;51.094;13.714;2024-02-15T07:22:58;8.00;;;4.57;;
75655;SDS011;64252;51.094;13.714;2024-02-15T07:25:24;8.68;;;4.95;;
75655;SDS011;64252;51.094;13.714;2024-02-15T07:27:50;9.18;;;4.70;;
75655;SDS011;64252;51.094;13.714;2024-02-15T07:30:15;9.48;;;4.72;;
75655;SDS011;64252;51.094;13.714;2024-02-15T07:32:41;9.88;;;5.82;;
75655;SDS011;64252;51.094;13.714;2024-02-15T07:35:06;9.00;;;5.03;;
75655;SDS011;64252;51.094;13.714;2024-02-15T07:37:33;8.75;;;5.53;;
75655;SDS011;64252;51.094;13.714;2024-02-15T07:39:59;8.63;;;4.65;;
75655;SDS011;64252;51.094;13.714;2024-02-15T07:42:25;11.68;;;5.05;;
75655;SDS011;64252;51.094;13.714;2024-02-15T07:44:51;10.63;;;5.82;;
75655;SDS011;64252;51.094;13.714;2024-02-15T07:47:18;8.35;;;5.13;;
75655;SDS011;64252;51.094;13.714;2024-02-15T07:49:46;8.85;;;4.80;;
75655;SDS011;64252;51.094;13.714;2024-02-15T07:52:11;8.93;;;5.18;;
75655;SDS011;64252;51.094;13.714;2024-02-15T07:54:40;9.35;;;5.22;;
75655;SDS011;64252;51.094;13.714;2024-02-15T07:57:05;7.88;;;4.68;;
75655;SDS011;64252;51.094;13.714;2024-02-15T07:59:31;10.52;;;5.20;;
75655;SDS011;64252;51.094;13.714;2024-02-15T08:01:56;11.85;;;5.63;;
75655;SDS011;64252;51.094;13.714;2024-02-15T08:04:23;10.88;;;6.35;;
75655;SDS011;64252;51.094;13.714;2024-02-15T08:06:50;10.85;;;6.25;;
75655;SDS011;64252;51.094;13.714;2024-02-15T08:09:19;10.50;;;6.38;;
75655;SDS011;64252;51.094;13.714;2024-02-15T08:11:47;11.18;;;6.40;;
75655;SDS011;64252;51.094;13.714;2024-02-15T08:14:14;11.40;;;6.07;;
75655;SDS011;64252;51.094;13.714;2024-02-15T08:16:40;11.73;;;6.53;;
75655;SDS011;64252;51.094;13.714;2024-02-15T08:19:06;9.95;;;5.80;;
75655;SDS011;64252;51.094;13.714;2024-02-15T08:21:32;9.80;;;5.93;;
75655;SDS011;64252;51.094;13.714;2024-02-15T08:24:01;9.73;;;5.97;;
75655;SDS011;64252;51.094;13.714;2024-02-15T08:26:35;12.02;;;5.93;;
75655;SDS011;64252;51.094;13.714;2024-02-15T08:29:03;11.75;;;6.65;;
75655;SDS011;64252;51.094;13.714;2024-02-15T08:31:29;11.07;;;6.20;;
75655;SDS011;64252;51.094;13.714;2024-02-15T08:33:59;9.60;;;6.13;;
75655;SDS011;64252;51.094;13.714;2024-02-15T08:36:25;11.68;;;6.40;;
75655;SDS011;64252;51.094;13.714;2024-02-15T08:38:51;8.98;;;5.70;;
75655;SDS011;64252;51.094;13.714;2024-02-15T08:41:17;9.43;;;5.40;;
75655;SDS011;64252;51.094;13.714;2024-02-15T08:43:52;8.68;;;4.90;;
75655;SDS011;64252;51.094;13.714;2024-02-15T08:46:17;10.82;;;5.63;;
75655;SDS011;64252;51.094;13.714;2024-02-15T08:48:44;10.75;;;6.00;;
75655;SDS011;64252;51.094;13.714;2024-02-15T08:51:11;10.13;;;5.80;;
75655;SDS011;64252;51.094;13.714;2024-02-15T08:53:37;8.98;;;4.88;;
75655;SDS011;64252;51.094;13.714;2024-02-15T08:56:06;8.80;;;5.47;;
75655;SDS011;64252;51.094;13.714;2024-02-15T08:58:34;9.88;;;5.28;;
75655;SDS011;64252;51.094;13.714;2024-02-15T09:01:00;8.70;;;4.47;;
75655;SDS011;64252;51.094;13.714;2024-02-15T09:03:25;7.50;;;4.32;;
75655;SDS011;64252;51.094;13.714;2024-02-15T09:05:51;8.60;;;5.00;;
75655;SDS011;64252;51.094;13.714;2024-02-15T09:08:17;8.93;;;4.90;;
75655;SDS011;64252;51.094;13.714;2024-02-15T09:15:40;8.82;;;4.00;;
75655;SDS011;64252;51.094;13.714;2024-02-15T09:18:07;8.77;;;4.75;;
75655;SDS011;64252;51.094;13.714;2024-02-15T09:20:35;9.95;;;4.63;;
75655;SDS011;64252;51.094;13.714;2024-02-15T09:23:02;7.45;;;4.38;;
75655;SDS011;64252;51.094;13.714;2024-02-15T09:25:34;6.45;;;3.95;;
75655;SDS011;64252;51.094;13.714;2024-02-15T09:28:01;10.07;;;4.78;;
75655;SDS011;64252;51.094;13.714;2024-02-15T09:30:28;9.55;;;5.05;;
75655;SDS011;64252;51.094;13.714;2024-02-15T09:32:54;7.18;;;4.10;;
75655;SDS011;64252;51.094;13.714;2024-02-15T09:35:19;7.95;;;4.53;;
75655;SDS011;64252;51.094;13.714;2024-02-15T09:37:46;8.02;;;4.75;;
75655;SDS011;64252;51.094;13.714;2024-02-15T09:40:17;8.60;;;4.72;;
75655;SDS011;64252;51.094;13.714;2024-02-15T09:42:44;9.55;;;4.93;;
75655;SDS011;64252;51.094;13.714;2024-02-15T09:45:10;7.32;;;4.28;;
75655;SDS011;64252;51.094;13.714;2024-02-15T09:47:41;6.88;;;4.15;;
75655;SDS011;64252;51.094;13.714;2024-02-15T09:50:11;7.72;;;4.25;;
75655;SDS011;64252;51.094;13.714;2024-02-15T09:53:00;9.13;;;4.68;;
75655;SDS011;64252;51.094;13.714;2024-02-15T09:55:27;9.15;;;4.95;;
75655;SDS011;64252;51.094;13.714;2024-02-15T09:57:54;9.75;;;5.32;;
75655;SDS011;64252;51.094;13.714;2024-02-15T10:00:20;12.10;;;5.10;;
75655;SDS011;64252;51.094;13.714;2024-02-15T10:02:52;10.43;;;5.00;;
75655;SDS011;64252;51.094;13.714;2024-02-15T10:05:18;11.20;;;4.72;;
75655;SDS011;64252;51.094;13.714;2024-02-15T10:07:45;8.07;;;4.60;;
75655;SDS011;64252;51.094;13.714;2024-02-15T10:10:18;7.97;;;4.15;;
75655;SDS011;64252;51.094;13.714;2024-02-15T10:12:45;8.52;;;4.40;;
75655;SDS011;64252;51.094;13.714;2024-02-15T10:15:26;7.18;;;3.85;;
75655;SDS011;64252;51.094;13.714;2024-02-15T10:17:54;8.50;;;4.03;;
75655;SDS011;64252;51.094;13.714;2024-02-15T10:20:21;10.77;;;4.90;;
75655;SDS011;64252;51.094;13.714;2024-02-15T10:22:46;9.10;;;4.82;;
75655;SDS011;64252;51.094;13.714;2024-02-15T10:25:12;8.35;;;4.68;;
75655;SDS011;64252;51.094;13.714;2024-02-15T10:27:39;6.53;;;3.50;;
75655;SDS011;64252;51.094;13.714;2024-02-15T10:32:40;7.28;;;4.22;;
75655;SDS011;64252;51.094;13.714;2024-02-15T10:35:06;9.38;;;4.45;;
75655;SDS011;64252;51.094;13.714;2024-02-15T10:37:32;6.82;;;4.03;;
75655;SDS011;64252;51.094;13.714;2024-02-15T10:40:04;8.52;;;3.83;;
75655;SDS011;64252;51.094;13.714;2024-02-15T10:42:32;7.80;;;4.30;;
75655;SDS011;64252;51.094;13.714;2024-02-15T10:45:04;8.00;;;3.83;;
75655;SDS011;64252;51.094;13.714;2024-02-15T10:47:31;7.50;;;3.80;;
75655;SDS011;64252;51.094;13.714;2024-02-15T10:49:57;9.10;;;4.47;;
75655;SDS011;64252;51.094;13.714;2024-02-15T10:52:24;7.13;;;3.85;;
75655;SDS011;64252;51.094;13.714;2024-02-15T10:54:59;7.45;;;4.00;;
75655;SDS011;64252;51.094;13.714;2024-02-15T10:57:31;6.32;;;3.72;;
75655;SDS011;64252;51.094;13.714;2024-02-15T10:59:58;8.73;;;4.38;;
75655;SDS011;64252;51.094;13.714;2024-02-15T11:02:29;9.38;;;4.50;;
75655;SDS011;64252;51.094;13.714;2024-02-15T11:05:06;7.50;;;4.15;;
75655;SDS011;64252;51.094;13.714;2024-02-15T11:07:37;9.43;;;4.82;;
75655;SDS011;64252;51.094;13.714;2024-02-15T11:10:04;7.70;;;4.43;;
75655;SDS011;64252;51.094;13.714;2024-02-15T11:14:59;8.63;;;4.22;;
75655;SDS011;64252;51.094;13.714;2024-02-15T11:20:02;9.85;;;4.32;;
75655;SDS011;64252;51.094;13.714;2024-02-15T11:22:33;8.38;;;4.63;;
75655;SDS011;64252;51.094;13.714;2024-02-15T11:25:02;7.82;;;4.30;;
75655;SDS011;64252;51.094;13.714;2024-02-15T11:27:36;7.80;;;4.30;;
75655;SDS011;64252;51.094;13.714;2024-02-15T11:30:03;9.98;;;5.30;;
75655;SDS011;64252;51.094;13.714;2024-02-15T11:32:44;8.55;;;4.60;;
75655;SDS011;64252;51.094;13.714;2024-02-15T11:35:19;7.95;;;4.57;;
75655;SDS011;64252;51.094;13.714;2024-02-15T11:42:52;8.93;;;4.35;;
75655;SDS011;64252;51.094;13.714;2024-02-15T11:45:19;7.95;;;4.28;;
75655;SDS011;64252;51.094;13.714;2024-02-15T11:47:54;8.77;;;4.78;;
75655;SDS011;64252;51.094;13.714;2024-02-15T11:52:47;8.32;;;4.35;;
75655;SDS011;64252;51.094;13.714;2024-02-15T11:55:14;8.10;;;3.63;;
75655;SDS011;64252;51.094;13.714;2024-02-15T11:57:54;8.30;;;3.70;;
75655;SDS011;64252;51.094;13.714;2024-02-15T12:00:30;8.48;;;4.15;;
75655;SDS011;64252;51.094;13.714;2024-02-15T12:03:14;12.10;;;5.15;;
75655;SDS011;64252;51.094;13.714;2024-02-15T12:05:59;7.88;;;4.53;;
75655;SDS011;64252;51.094;13.714;2024-02-15T12:08:45;9.20;;;4.43;;
75655;SDS011;64252;51.094;13.714;2024-02-15T12:11:33;8.95;;;4.32;;
75655;SDS011;64252;51.094;13.714;2024-02-15T12:14:18;10.27;;;4.75;;
75655;SDS011;64252;51.094;13.714;2024-02-15T12:17:09;9.10;;;4.22;;
75655;SDS011;64252;51.094;13.714;2024-02-15T12:19:53;6.63;;;3.65;;
75655;SDS011;64252;51.094;13.714;2024-02-15T12:22:40;8.98;;;4.13;;
75655;SDS011;64252;51.094;13.714;2024-02-15T12:25:15;6.93;;;3.80;;
75655;SDS011;64252;51.094;13.714;2024-02-15T12:27:42;7.40;;;3.35;;
75655;SDS011;64252;51.094;13.714;2024-02-15T12:30:17;6.05;;;3.05;;
75655;SDS011;64252;51.094;13.714;2024-02-15T12:32:46;6.57;;;3.53;;
75655;SDS011;64252;51.094;13.714;2024-02-15T12:35:13;6.10;;;3.47;;
75655;SDS011;64252;51.094;13.714;2024-02-15T12:40:31;7.65;;;3.53;;
75655;SDS011;64252;51.094;13.714;2024-02-15T12:42:58;8.40;;;3.88;;
75655;SDS011;64252;51.094;13.714;2024-02-15T12:45:25;10.68;;;3.83;;
75655;SDS011;64252;51.094;13.714;2024-02-15T12:47:53;7.38;;;3.70;;
75655;SDS011;64252;51.094;13.714;2024-02-15T12:50:20;6.68;;;3.20;;
75655;SDS011;64252;51.094;13.714;2024-02-15T12:52:47;6.10;;;3.13;;
75655;SDS011;64252;51.094;13.714;2024-02-15T12:55:19;7.55;;;3.30;;
75655;SDS011;64252;51.094;13.714;2024-02-15T12:57:49;5.88;;;2.95;;
75655;SDS011;64252;51.094;13.714;2024-02-15T13:00:19;9.13;;;3.20;;
75655;SDS011;64252;51.094;13.714;2024-02-15T13:02:49;6.50;;;2.30;;
75655;SDS011;64252;51.094;13.714;2024-02-15T13:05:16;5.55;;;2.80;;
75655;SDS011;64252;51.094;13.714;2024-02-15T13:07:47;7.25;;;3.03;;
75655;SDS011;64252;51.094;13.714;2024-02-15T13:10:14;8.85;;;3.53;;
75655;SDS011;64252;51.094;13.714;2024-02-15T13:12:43;9.05;;;3.60;;
75655;SDS011;64252;51.094;13.714;2024-02-15T13:15:14;7.78;;;3.17;;
75655;SDS011;64252;51.094;13.714;2024-02-15T13:17:45;6.97;;;2.85;;
75655;SDS011;64252;51.094;13.714;2024-02-15T13:20:11;5.57;;;2.97;;
75655;SDS011;64252;51.094;13.714;2024-02-15T13:22:42;5.70;;;2.88;;
75655;SDS011;64252;51.094;13.714;2024-02-15T13:25:09;6.82;;;2.38;;
75655;SDS011;64252;51.094;13.714;2024-02-15T13:27:35;6.03;;;2.50;;
75655;SDS011;64252;51.094;13.714;2024-02-15T13:30:05;4.78;;;2.50;;
75655;SDS011;64252;51.094;13.714;2024-02-15T13:35:01;4.22;;;1.67;;
75655;SDS011;64252;51.094;13.714;2024-02-15T13:37:57;6.75;;;1.77;;
75655;SDS011;64252;51.094;13.714;2024-02-15T13:40:26;7.43;;;1.58;;
75655;SDS011;64252;51.094;13.714;2024-02-15T13:42:56;4.00;;;1.08;;
75655;SDS011;64252;51.094;13.714;2024-02-15T13:45:29;4.28;;;1.17;;
75655;SDS011;64252;51.094;13.714;2024-02-15T13:47:59;2.72;;;0.82;;
75655;SDS011;64252;51.094;13.714;2024-02-15T13:50:30;1.67;;;0.57;;
75655;SDS011;64252;51.094;13.714;2024-02-15T13:52:56;3.38;;;0.85;;
75655;SDS011;64252;51.094;13.714;2024-02-15T13:55:25;2.63;;;0.73;;
75655;SDS011;64252;51.094;13.714;2024-02-15T13:57:52;3.60;;;0.70;;
75655;SDS011;64252;51.094;13.714;2024-02-15T14:00:18;2.42;;;0.80;;
75655;SDS011;64252;51.094;13.714;2024-02-15T14:05:13;4.88;;;2.05;;
75655;SDS011;64252;51.094;13.714;2024-02-15T14:07:40;3.15;;;1.50;;
75655;SDS011;64252;51.094;13.714;2024-02-15T14:10:05;3.10;;;1.10;;
75655;SDS011;64252;51.094;13.714;2024-02-15T14:12:32;2.20;;;0.82;;
75655;SDS011;64252;51.094;13.714;2024-02-15T14:14:59;4.00;;;1.30;;
75655;SDS011;64252;51.094;13.714;2024-02-15T14:17:25;2.55;;;1.00;;
75655;SDS011;64252;51.094;13.714;2024-02-15T14:19:50;3.95;;;1.10;;
75655;SDS011;64252;51.094;13.714;2024-02-15T14:22:16;6.10;;;0.90;;
75655;SDS011;64252;51.094;13.714;2024-02-15T14:24:42;2.70;;;0.82;;
75655;SDS011;64252;51.094;13.714;2024-02-15T14:27:09;3.15;;;0.80;;
75655;SDS011;64252;51.094;13.714;2024-02-15T14:29:36;4.28;;;0.80;;
75655;SDS011;64252;51.094;13.714;2024-02-15T14:32:10;2.83;;;0.70;;
75655;SDS011;64252;51.094;13.714;2024-02-15T14:34:55;1.95;;;0.68;;
75655;SDS011;64252;51.094;13.714;2024-02-15T14:37:21;1.55;;;0.50;;
75655;SDS011;64252;51.094;13.714;2024-02-15T14:39:47;2.30;;;0.70;;
75655;SDS011;64252;51.094;13.714;2024-02-15T14:42:13;2.42;;;0.73;;
75655;SDS011;64252;51.094;13.714;2024-02-15T14:44:39;2.72;;;0.60;;
75655;SDS011;64252;51.094;13.714;2024-02-15T14:47:05;2.15;;;0.60;;
75655;SDS011;64252;51.094;13.714;2024-02-15T14:49:31;1.80;;;0.63;;
75655;SDS011;64252;51.094;13.714;2024-02-15T14:51:56;2.15;;;0.70;;
75655;SDS011;64252;51.094;13.714;2024-02-15T14:54:22;2.78;;;0.93;;
75655;SDS011;64252;51.094;13.714;2024-02-15T14:56:47;2.03;;;0.63;;
75655;SDS011;64252;51.094;13.714;2024-02-15T14:59:13;1.45;;;0.57;;
75655;SDS011;64252;51.094;13.714;2024-02-15T15:01:40;1.73;;;0.60;;
75655;SDS011;64252;51.094;13.714;2024-02-15T15:04:06;1.45;;;0.50;;
75655;SDS011;64252;51.094;13.714;2024-02-15T15:06:33;1.60;;;0.50;;
75655;SDS011;64252;51.094;13.714;2024-02-15T15:09:18;1.50;;;0.50;;
75655;SDS011;64252;51.094;13.714;2024-02-15T15:12:02;1.58;;;0.60;;
75655;SDS011;64252;51.094;13.714;2024-02-15T15:14:46;1.90;;;0.68;;